Terminal Aerodrome Forecast
Issued by NWS

Home | Current Version | Previous Version | Text Only | Print | Product List | Glossary Off
Versions: 1 2 3 4 5 6 7 8 9 10 11 12 13 14 15 16 17

000
FTUS43 KIWX 191100
TAFSBN
TAF
KSBN 191135Z 1912/2012 11007KT 5SM BR SCT250
     FM191400 14010KT P6SM SCT250
     FM192300 16008KT P6SM SKC=

USA.gov is the U.S. government's official web portal to all federal, state and local government web resources and services.